sensor_id;sensor_type;location;lat;lon;timestamp;pressure;altitude;pressure_sealevel;temperature;humidity
73651;BME280;61944;52.538;6.108;2023-06-04T00:01:02;102149.81;;;15.40;62.43
73651;BME280;61944;52.538;6.108;2023-06-04T00:03:27;102160.31;;;15.43;62.11
73651;BME280;61944;52.538;6.108;2023-06-04T00:05:53;102147.31;;;15.35;62.63
73651;BME280;61944;52.538;6.108;2023-06-04T00:08:18;102153.72;;;15.32;62.88
73651;BME280;61944;52.538;6.108;2023-06-04T00:10:44;102149.16;;;15.23;62.75
73651;BME280;61944;52.538;6.108;2023-06-04T00:13:09;102146.75;;;15.25;62.97
73651;BME280;61944;52.538;6.108;2023-06-04T00:15:35;102137.63;;;15.09;63.25
73651;BME280;61944;52.538;6.108;2023-06-04T00:18:00;102153.03;;;15.15;63.26
73651;BME280;61944;52.538;6.108;2023-06-04T00:20:25;102152.81;;;15.01;63.31
73651;BME280;61944;52.538;6.108;2023-06-04T00:22:51;102144.97;;;15.14;63.00
73651;BME280;61944;52.538;6.108;2023-06-04T00:25:16;102148.03;;;15.05;63.27
73651;BME280;61944;52.538;6.108;2023-06-04T00:27:42;102147.69;;;15.07;63.32
73651;BME280;61944;52.538;6.108;2023-06-04T00:30:07;102142.31;;;14.98;63.93
73651;BME280;61944;52.538;6.108;2023-06-04T00:32:33;102143.94;;;14.99;63.73
73651;BME280;61944;52.538;6.108;2023-06-04T00:34:58;102148.47;;;14.80;64.17
73651;BME280;61944;52.538;6.108;2023-06-04T00:37:24;102155.09;;;14.92;64.10
73651;BME280;61944;52.538;6.108;2023-06-04T00:39:51;102149.88;;;14.94;63.91
73651;BME280;61944;52.538;6.108;2023-06-04T00:42:17;102150.69;;;14.71;64.54
73651;BME280;61944;52.538;6.108;2023-06-04T00:44:42;102148.94;;;14.63;64.45
73651;BME280;61944;52.538;6.108;2023-06-04T00:47:14;102141.31;;;14.87;64.14
73651;BME280;61944;52.538;6.108;2023-06-04T00:49:40;102149.81;;;14.67;64.98
73651;BME280;61944;52.538;6.108;2023-06-04T00:52:08;102157.59;;;14.54;65.21
73651;BME280;61944;52.538;6.108;2023-06-04T00:54:34;102147.66;;;14.57;65.62
73651;BME280;61944;52.538;6.108;2023-06-04T00:57:00;102147.75;;;14.64;65.06
73651;BME280;61944;52.538;6.108;2023-06-04T00:59:26;102145.09;;;14.52;65.46
73651;BME280;61944;52.538;6.108;2023-06-04T01:01:57;102155.91;;;14.50;65.72
73651;BME280;61944;52.538;6.108;2023-06-04T01:04:28;102146.44;;;14.58;65.33
73651;BME280;61944;52.538;6.108;2023-06-04T01:06:56;102153.28;;;14.57;65.32
73651;BME280;61944;52.538;6.108;2023-06-04T01:09:25;102156.72;;;14.50;65.50
73651;BME280;61944;52.538;6.108;2023-06-04T01:11:51;102152.97;;;14.42;65.87
73651;BME280;61944;52.538;6.108;2023-06-04T01:14:16;102157.41;;;14.43;66.03
73651;BME280;61944;52.538;6.108;2023-06-04T01:16:56;102157.16;;;14.52;65.36
73651;BME280;61944;52.538;6.108;2023-06-04T01:25:21;102149.53;;;14.30;65.86
73651;BME280;61944;52.538;6.108;2023-06-04T01:27:50;102153.00;;;14.23;66.70
73651;BME280;61944;52.538;6.108;2023-06-04T01:30:20;102145.75;;;14.22;66.61
73651;BME280;61944;52.538;6.108;2023-06-04T01:32:46;102161.16;;;14.28;66.38
73651;BME280;61944;52.538;6.108;2023-06-04T01:35:12;102159.25;;;14.13;66.99
73651;BME280;61944;52.538;6.108;2023-06-04T01:37:37;102157.69;;;14.15;67.29
73651;BME280;61944;52.538;6.108;2023-06-04T01:40:03;102147.53;;;14.11;67.35
73651;BME280;61944;52.538;6.108;2023-06-04T01:42:30;102146.94;;;14.01;68.30
73651;BME280;61944;52.538;6.108;2023-06-04T01:44:55;102155.16;;;14.10;67.72
73651;BME280;61944;52.538;6.108;2023-06-04T01:47:20;102149.06;;;14.08;67.43
73651;BME280;61944;52.538;6.108;2023-06-04T01:49:46;102141.16;;;13.94;68.30
73651;BME280;61944;52.538;6.108;2023-06-04T01:52:11;102145.69;;;13.79;69.24
73651;BME280;61944;52.538;6.108;2023-06-04T01:54:36;102143.53;;;13.92;68.24
73651;BME280;61944;52.538;6.108;2023-06-04T01:57:04;102145.53;;;13.92;69.04
73651;BME280;61944;52.538;6.108;2023-06-04T01:59:30;102148.28;;;13.88;69.15
73651;BME280;61944;52.538;6.108;2023-06-04T02:01:57;102143.19;;;13.94;69.10
73651;BME280;61944;52.538;6.108;2023-06-04T02:04:22;102141.63;;;13.77;68.99
73651;BME280;61944;52.538;6.108;2023-06-04T02:06:50;102147.06;;;13.70;70.15
73651;BME280;61944;52.538;6.108;2023-06-04T02:09:15;102144.56;;;13.84;69.61
73651;BME280;61944;52.538;6.108;2023-06-04T02:11:41;102150.50;;;13.79;70.12
73651;BME280;61944;52.538;6.108;2023-06-04T02:14:06;102153.47;;;13.86;69.51
73651;BME280;61944;52.538;6.108;2023-06-04T02:16:31;102137.38;;;13.67;70.52
73651;BME280;61944;52.538;6.108;2023-06-04T02:18:57;102145.44;;;13.69;70.31
73651;BME280;61944;52.538;6.108;2023-06-04T02:21:24;102134.78;;;13.58;71.22
73651;BME280;61944;52.538;6.108;2023-06-04T02:23:49;102138.25;;;13.52;71.06
73651;BME280;61944;52.538;6.108;2023-06-04T02:26:18;102142.91;;;13.63;70.76
73651;BME280;61944;52.538;6.108;2023-06-04T02:28:43;102147.72;;;13.63;70.76
73651;BME280;61944;52.538;6.108;2023-06-04T02:31:08;102145.34;;;13.46;71.60
73651;BME280;61944;52.538;6.108;2023-06-04T02:33:34;102147.84;;;13.51;71.56
73651;BME280;61944;52.538;6.108;2023-06-04T02:35:59;102140.72;;;13.37;71.61
73651;BME280;61944;52.538;6.108;2023-06-04T02:38:25;102136.66;;;13.35;71.58
73651;BME280;61944;52.538;6.108;2023-06-04T02:40:50;102146.00;;;13.39;71.99
73651;BME280;61944;52.538;6.108;2023-06-04T02:43:15;102147.16;;;13.38;71.97
73651;BME280;61944;52.538;6.108;2023-06-04T02:45:41;102159.16;;;13.35;72.88
73651;BME280;61944;52.538;6.108;2023-06-04T02:48:06;102141.09;;;13.36;72.72
73651;BME280;61944;52.538;6.108;2023-06-04T02:50:32;102151.00;;;13.30;72.68
73651;BME280;61944;52.538;6.108;2023-06-04T02:52:58;102143.75;;;13.29;72.55
73651;BME280;61944;52.538;6.108;2023-06-04T02:55:23;102150.50;;;13.28;73.20
73651;BME280;61944;52.538;6.108;2023-06-04T02:57:48;102145.19;;;13.22;73.42
73651;BME280;61944;52.538;6.108;2023-06-04T03:00:14;102143.53;;;13.21;73.70
73651;BME280;61944;52.538;6.108;2023-06-04T03:02:42;102141.13;;;13.04;75.15
73651;BME280;61944;52.538;6.108;2023-06-04T03:05:09;102137.69;;;12.95;75.57
73651;BME280;61944;52.538;6.108;2023-06-04T03:07:36;102142.56;;;12.98;75.64
73651;BME280;61944;52.538;6.108;2023-06-04T03:10:02;102130.47;;;13.13;74.40
73651;BME280;61944;52.538;6.108;2023-06-04T03:12:29;102130.63;;;13.01;75.03
73651;BME280;61944;52.538;6.108;2023-06-04T03:14:54;102137.59;;;13.07;75.08
73651;BME280;61944;52.538;6.108;2023-06-04T03:17:19;102131.31;;;12.98;76.16
73651;BME280;61944;52.538;6.108;2023-06-04T03:19:45;102138.31;;;13.04;76.07
73651;BME280;61944;52.538;6.108;2023-06-04T03:22:10;102130.97;;;12.84;76.43
73651;BME280;61944;52.538;6.108;2023-06-04T03:24:38;102137.50;;;12.88;78.37
73651;BME280;61944;52.538;6.108;2023-06-04T03:27:04;102137.22;;;12.93;76.67
73651;BME280;61944;52.538;6.108;2023-06-04T03:29:30;102140.66;;;13.02;75.28
73651;BME280;61944;52.538;6.108;2023-06-04T03:31:56;102128.34;;;12.91;76.76
73651;BME280;61944;52.538;6.108;2023-06-04T03:34:21;102133.78;;;12.84;78.11
73651;BME280;61944;52.538;6.108;2023-06-04T03:36:53;102144.47;;;12.94;76.68
73651;BME280;61944;52.538;6.108;2023-06-04T03:39:19;102126.69;;;12.90;77.82
73651;BME280;61944;52.538;6.108;2023-06-04T03:41:44;102116.91;;;12.84;77.88
73651;BME280;61944;52.538;6.108;2023-06-04T03:44:15;102138.31;;;12.88;78.62
73651;BME280;61944;52.538;6.108;2023-06-04T03:46:41;102128.72;;;12.73;79.35
73651;BME280;61944;52.538;6.108;2023-06-04T03:49:08;102134.97;;;12.82;78.63
73651;BME280;61944;52.538;6.108;2023-06-04T03:51:34;102137.59;;;12.91;78.44
73651;BME280;61944;52.538;6.108;2023-06-04T03:54:00;102129.91;;;12.88;78.59
73651;BME280;61944;52.538;6.108;2023-06-04T03:56:25;102143.50;;;12.86;78.96
73651;BME280;61944;52.538;6.108;2023-06-04T03:58:54;102132.69;;;12.72;80.25
73651;BME280;61944;52.538;6.108;2023-06-04T04:01:19;102133.53;;;12.89;79.42
73651;BME280;61944;52.538;6.108;2023-06-04T04:03:45;102126.44;;;12.79;79.25
73651;BME280;61944;52.538;6.108;2023-06-04T04:06:13;102121.09;;;12.90;78.57
73651;BME280;61944;52.538;6.108;2023-06-04T04:08:39;102118.28;;;12.90;80.15
73651;BME280;61944;52.538;6.108;2023-06-04T04:11:08;102116.09;;;12.83;79.41
73651;BME280;61944;52.538;6.108;2023-06-04T04:13:33;102129.25;;;12.95;78.78
73651;BME280;61944;52.538;6.108;2023-06-04T04:15:59;102121.19;;;12.93;79.46
73651;BME280;61944;52.538;6.108;2023-06-04T04:18:24;102117.00;;;12.87;80.55
73651;BME280;61944;52.538;6.108;2023-06-04T04:20:50;102131.50;;;12.89;81.42
73651;BME280;61944;52.538;6.108;2023-06-04T04:23:15;102126.00;;;12.93;81.28
73651;BME280;61944;52.538;6.108;2023-06-04T04:25:42;102122.00;;;12.94;80.42
73651;BME280;61944;52.538;6.108;2023-06-04T04:28:09;102129.25;;;12.95;79.98
73651;BME280;61944;52.538;6.108;2023-06-04T04:30:35;102136.69;;;12.71;84.15
73651;BME280;61944;52.538;6.108;2023-06-04T04:33:02;102133.63;;;12.92;82.19
73651;BME280;61944;52.538;6.108;2023-06-04T04:35:27;102139.59;;;12.91;81.75
73651;BME280;61944;52.538;6.108;2023-06-04T04:37:54;102137.31;;;12.96;81.89
73651;BME280;61944;52.538;6.108;2023-06-04T04:40:20;102146.13;;;12.95;82.29
73651;BME280;61944;52.538;6.108;2023-06-04T04:42:46;102143.31;;;12.95;80.94
73651;BME280;61944;52.538;6.108;2023-06-04T04:45:11;102159.16;;;13.03;81.70
73651;BME280;61944;52.538;6.108;2023-06-04T04:47:37;102147.72;;;12.96;81.73
73651;BME280;61944;52.538;6.108;2023-06-04T04:50:03;102157.44;;;12.98;81.61
73651;BME280;61944;52.538;6.108;2023-06-04T04:52:28;102148.84;;;13.07;81.79
73651;BME280;61944;52.538;6.108;2023-06-04T04:54:54;102147.72;;;12.96;83.34
73651;BME280;61944;52.538;6.108;2023-06-04T04:57:21;102143.31;;;12.63;84.73
73651;BME280;61944;52.538;6.108;2023-06-04T04:59:47;102141.84;;;13.01;82.48
73651;BME280;61944;52.538;6.108;2023-06-04T05:02:13;102145.22;;;12.91;83.73
73651;BME280;61944;52.538;6.108;2023-06-04T05:04:39;102144.22;;;12.83;87.72
73651;BME280;61944;52.538;6.108;2023-06-04T05:07:04;102140.13;;;12.49;92.86
73651;BME280;61944;52.538;6.108;2023-06-04T05:09:30;102138.78;;;12.90;84.74
73651;BME280;61944;52.538;6.108;2023-06-04T05:11:55;102139.22;;;12.76;89.29
73651;BME280;61944;52.538;6.108;2023-06-04T05:14:20;102135.31;;;12.97;83.41
73651;BME280;61944;52.538;6.108;2023-06-04T05:16:46;102147.44;;;13.17;86.84
73651;BME280;61944;52.538;6.108;2023-06-04T05:19:13;102144.44;;;13.26;85.45
73651;BME280;61944;52.538;6.108;2023-06-04T05:21:39;102149.53;;;13.36;82.46
73651;BME280;61944;52.538;6.108;2023-06-04T05:24:04;102148.72;;;13.35;84.71
73651;BME280;61944;52.538;6.108;2023-06-04T05:26:30;102141.09;;;13.20;89.72
73651;BME280;61944;52.538;6.108;2023-06-04T05:28:55;102145.28;;;13.26;88.01
73651;BME280;61944;52.538;6.108;2023-06-04T05:31:21;102139.59;;;12.91;88.29
73651;BME280;61944;52.538;6.108;2023-06-04T05:33:47;102146.19;;;13.14;87.22
73651;BME280;61944;52.538;6.108;2023-06-04T05:36:13;102143.09;;;13.35;88.42
73651;BME280;61944;52.538;6.108;2023-06-04T05:38:39;102151.66;;;13.58;84.95
73651;BME280;61944;52.538;6.108;2023-06-04T05:41:04;102151.31;;;13.44;93.41
73651;BME280;61944;52.538;6.108;2023-06-04T05:43:29;102145.00;;;13.15;93.55
73651;BME280;61944;52.538;6.108;2023-06-04T05:45:55;102143.19;;;13.23;91.27
73651;BME280;61944;52.538;6.108;2023-06-04T05:48:20;102137.69;;;12.95;99.26
73651;BME280;61944;52.538;6.108;2023-06-04T05:50:46;102149.91;;;13.18;92.06
73651;BME280;61944;52.538;6.108;2023-06-04T05:53:12;102145.00;;;13.15;90.89
73651;BME280;61944;52.538;6.108;2023-06-04T05:55:37;102141.63;;;13.26;93.20
73651;BME280;61944;52.538;6.108;2023-06-04T05:58:03;102152.19;;;12.97;100.00
73651;BME280;61944;52.538;6.108;2023-06-04T06:00:28;102151.44;;;13.16;99.11
73651;BME280;61944;52.538;6.108;2023-06-04T06:02:55;102149.44;;;13.32;95.97
73651;BME280;61944;52.538;6.108;2023-06-04T06:05:20;102156.50;;;13.42;94.10
73651;BME280;61944;52.538;6.108;2023-06-04T06:07:46;102147.41;;;13.49;93.38
73651;BME280;61944;52.538;6.108;2023-06-04T06:10:12;102149.84;;;13.50;94.45
73651;BME280;61944;52.538;6.108;2023-06-04T06:12:38;102151.88;;;13.34;98.14
73651;BME280;61944;52.538;6.108;2023-06-04T06:15:04;102162.41;;;13.72;91.94
73651;BME280;61944;52.538;6.108;2023-06-04T06:17:30;102160.88;;;13.75;93.53
73651;BME280;61944;52.538;6.108;2023-06-04T06:19:55;102158.78;;;13.72;90.11
73651;BME280;61944;52.538;6.108;2023-06-04T06:22:21;102151.81;;;13.66;93.25
73651;BME280;61944;52.538;6.108;2023-06-04T06:24:47;102158.19;;;13.62;90.61
73651;BME280;61944;52.538;6.108;2023-06-04T06:27:16;102162.47;;;13.76;92.65
73651;BME280;61944;52.538;6.108;2023-06-04T06:29:41;102165.16;;;13.88;88.92
73651;BME280;61944;52.538;6.108;2023-06-04T06:32:08;102165.97;;;13.89;92.79
73651;BME280;61944;52.538;6.108;2023-06-04T06:34:33;102162.88;;;13.94;93.64
73651;BME280;61944;52.538;6.108;2023-06-04T06:36:58;102166.28;;;14.03;88.94
73651;BME280;61944;52.538;6.108;2023-06-04T06:39:24;102173.59;;;14.08;88.71
73651;BME280;61944;52.538;6.108;2023-06-04T06:41:49;102158.13;;;13.98;87.69
73651;BME280;61944;52.538;6.108;2023-06-04T06:44:14;102163.22;;;14.12;90.77
73651;BME280;61944;52.538;6.108;2023-06-04T06:46:40;102159.38;;;14.00;92.32
73651;BME280;61944;52.538;6.108;2023-06-04T06:49:05;102179.44;;;14.18;88.00
73651;BME280;61944;52.538;6.108;2023-06-04T06:51:31;102171.81;;;14.38;87.21
73651;BME280;61944;52.538;6.108;2023-06-04T06:53:56;102177.22;;;14.47;88.96
73651;BME280;61944;52.538;6.108;2023-06-04T06:56:22;102184.69;;;14.39;87.74
73651;BME280;61944;52.538;6.108;2023-06-04T06:58:47;102178.94;;;14.32;89.83
73651;BME280;61944;52.538;6.108;2023-06-04T07:01:13;102178.16;;;14.55;86.05
73651;BME280;61944;52.538;6.108;2023-06-04T07:03:38;102177.69;;;14.72;88.58
73651;BME280;61944;52.538;6.108;2023-06-04T07:06:05;102186.88;;;14.69;87.59
73651;BME280;61944;52.538;6.108;2023-06-04T07:08:31;102182.72;;;14.82;86.57
73651;BME280;61944;52.538;6.108;2023-06-04T07:10:57;102185.66;;;14.90;85.74
73651;BME280;61944;52.538;6.108;2023-06-04T07:13:23;102191.66;;;15.11;85.00
73651;BME280;61944;52.538;6.108;2023-06-04T07:15:48;102186.78;;;15.08;83.05
73651;BME280;61944;52.538;6.108;2023-06-04T07:18:13;102205.31;;;15.09;84.53
73651;BME280;61944;52.538;6.108;2023-06-04T07:20:39;102190.16;;;15.17;83.72
73651;BME280;61944;52.538;6.108;2023-06-04T07:23:04;102193.41;;;15.19;83.50
73651;BME280;61944;52.538;6.108;2023-06-04T07:25:32;102195.59;;;15.30;83.14
73651;BME280;61944;52.538;6.108;2023-06-04T07:27:57;102185.16;;;16.17;77.45
73651;BME280;61944;52.538;6.108;2023-06-04T07:30:26;102193.63;;;16.55;77.57
73651;BME280;61944;52.538;6.108;2023-06-04T07:32:51;102199.31;;;17.47;73.92
73651;BME280;61944;52.538;6.108;2023-06-04T07:35:16;102196.19;;;17.56;74.45
73651;BME280;61944;52.538;6.108;2023-06-04T07:37:42;102200.53;;;16.95;72.69
73651;BME280;61944;52.538;6.108;2023-06-04T07:40:13;102199.22;;;17.30;72.30
73651;BME280;61944;52.538;6.108;2023-06-04T07:42:40;102201.66;;;16.83;74.53
73651;BME280;61944;52.538;6.108;2023-06-04T07:45:05;102209.75;;;16.88;75.38
73651;BME280;61944;52.538;6.108;2023-06-04T07:47:31;102204.22;;;16.61;72.08
73651;BME280;61944;52.538;6.108;2023-06-04T07:49:56;102196.66;;;16.35;73.91
73651;BME280;61944;52.538;6.108;2023-06-04T07:52:22;102204.25;;;16.65;73.26
73651;BME280;61944;52.538;6.108;2023-06-04T07:54:47;102198.88;;;16.86;70.37
73651;BME280;61944;52.538;6.108;2023-06-04T07:57:13;102196.00;;;17.90;66.58
73651;BME280;61944;52.538;6.108;2023-06-04T07:59:38;102202.03;;;17.85;71.79
73651;BME280;61944;52.538;6.108;2023-06-04T08:02:04;102205.91;;;17.62;68.23
73651;BME280;61944;52.538;6.108;2023-06-04T08:04:30;102199.22;;;17.30;72.75
73651;BME280;61944;52.538;6.108;2023-06-04T08:06:55;102204.81;;;17.81;64.03
73651;BME280;61944;52.538;6.108;2023-06-04T08:09:21;102204.59;;;18.12;65.54
73651;BME280;61944;52.538;6.108;2023-06-04T08:11:46;102198.84;;;17.97;68.33
73651;BME280;61944;52.538;6.108;2023-06-04T08:14:12;102201.97;;;17.78;66.12
73651;BME280;61944;52.538;6.108;2023-06-04T08:16:38;102212.56;;;17.92;64.85
73651;BME280;61944;52.538;6.108;2023-06-04T08:19:03;102190.78;;;18.06;65.56
73651;BME280;61944;52.538;6.108;2023-06-04T08:21:29;102209.50;;;17.52;67.43
73651;BME280;61944;52.538;6.108;2023-06-04T08:23:55;102207.41;;;17.42;62.84
73651;BME280;61944;52.538;6.108;2023-06-04T08:26:21;102204.69;;;17.56;65.43
73651;BME280;61944;52.538;6.108;2023-06-04T08:28:50;102209.19;;;17.68;66.71
73651;BME280;61944;52.538;6.108;2023-06-04T08:31:16;102214.88;;;17.72;64.52
73651;BME280;61944;52.538;6.108;2023-06-04T08:33:42;102199.63;;;17.87;63.60
73651;BME280;61944;52.538;6.108;2023-06-04T08:36:07;102206.81;;;17.81;62.09
73651;BME280;61944;52.538;6.108;2023-06-04T08:38:33;102204.59;;;18.12;60.50
73651;BME280;61944;52.538;6.108;2023-06-04T08:41:09;102201.81;;;18.22;60.05
73651;BME280;61944;52.538;6.108;2023-06-04T08:43:37;102205.06;;;18.28;61.15
73651;BME280;61944;52.538;6.108;2023-06-04T08:46:05;102210.75;;;18.35;63.45
73651;BME280;61944;52.538;6.108;2023-06-04T08:48:34;102207.16;;;18.45;63.31
73651;BME280;61944;52.538;6.108;2023-06-04T08:51:02;102215.31;;;18.68;59.83
73651;BME280;61944;52.538;6.108;2023-06-04T08:53:27;102205.59;;;18.73;60.56
73651;BME280;61944;52.538;6.108;2023-06-04T08:55:53;102216.16;;;18.80;59.61
73651;BME280;61944;52.538;6.108;2023-06-04T08:58:19;102213.34;;;18.87;58.31
73651;BME280;61944;52.538;6.108;2023-06-04T09:00:45;102212.53;;;19.04;61.14
73651;BME280;61944;52.538;6.108;2023-06-04T09:03:12;102201.59;;;18.96;58.86
73651;BME280;61944;52.538;6.108;2023-06-04T09:05:40;102217.00;;;19.16;63.80
73651;BME280;61944;52.538;6.108;2023-06-04T09:08:11;102207.28;;;19.28;58.81
73651;BME280;61944;52.538;6.108;2023-06-04T09:10:38;102213.75;;;19.36;58.71
73651;BME280;61944;52.538;6.108;2023-06-04T09:13:07;102212.13;;;19.35;56.75
73651;BME280;61944;52.538;6.108;2023-06-04T09:15:33;102210.91;;;19.43;58.79
73651;BME280;61944;52.538;6.108;2023-06-04T09:17:58;102211.34;;;19.38;60.22
73651;BME280;61944;52.538;6.108;2023-06-04T09:20:24;102210.50;;;19.44;63.32
73651;BME280;61944;52.538;6.108;2023-06-04T09:22:50;102213.72;;;19.68;61.47
73651;BME280;61944;52.538;6.108;2023-06-04T09:25:33;102216.56;;;19.64;56.90
73651;BME280;61944;52.538;6.108;2023-06-04T09:28:05;102212.09;;;19.56;56.16
73651;BME280;61944;52.538;6.108;2023-06-04T09:30:31;102212.53;;;19.40;56.82
73651;BME280;61944;52.538;6.108;2023-06-04T09:33:06;102210.09;;;19.57;56.09
73651;BME280;61944;52.538;6.108;2023-06-04T09:35:31;102215.75;;;19.71;56.16
73651;BME280;61944;52.538;6.108;2023-06-04T09:37:57;102214.94;;;19.78;56.30
73651;BME280;61944;52.538;6.108;2023-06-04T09:40:23;102220.97;;;19.94;54.94
73651;BME280;61944;52.538;6.108;2023-06-04T09:42:50;102224.97;;;20.18;52.04
73651;BME280;61944;52.538;6.108;2023-06-04T09:45:33;102215.63;;;20.18;53.96
73651;BME280;61944;52.538;6.108;2023-06-04T09:48:00;102210.44;;;19.95;52.83
73651;BME280;61944;52.538;6.108;2023-06-04T09:50:30;102216.88;;;20.06;53.36
73651;BME280;61944;52.538;6.108;2023-06-04T09:52:57;102213.69;;;19.93;54.29
73651;BME280;61944;52.538;6.108;2023-06-04T09:55:23;102209.16;;;20.06;53.00
73651;BME280;61944;52.538;6.108;2023-06-04T09:57:49;102214.34;;;20.26;57.34
73651;BME280;61944;52.538;6.108;2023-06-04T10:00:24;102214.34;;;20.33;52.92
73651;BME280;61944;52.538;6.108;2023-06-04T10:02:56;102204.50;;;20.48;52.55
73651;BME280;61944;52.538;6.108;2023-06-04T10:05:24;102215.09;;;20.44;52.55
73651;BME280;61944;52.538;6.108;2023-06-04T10:07:51;102216.44;;;20.18;52.67
73651;BME280;61944;52.538;6.108;2023-06-04T10:10:20;102224.47;;;20.38;54.42
73651;BME280;61944;52.538;6.108;2023-06-04T10:12:49;102211.75;;;20.64;49.84
73651;BME280;61944;52.538;6.108;2023-06-04T10:15:17;102210.22;;;21.08;50.57
73651;BME280;61944;52.538;6.108;2023-06-04T10:17:43;102222.69;;;21.25;55.91
73651;BME280;61944;52.538;6.108;2023-06-04T10:20:09;102216.13;;;21.31;51.37
73651;BME280;61944;52.538;6.108;2023-06-04T10:22:36;102215.09;;;21.11;52.99
73651;BME280;61944;52.538;6.108;2023-06-04T10:25:01;102217.72;;;20.87;49.43
73651;BME280;61944;52.538;6.108;2023-06-04T10:27:33;102222.16;;;21.41;51.34
73651;BME280;61944;52.538;6.108;2023-06-04T10:30:01;102222.09;;;21.48;48.07
73651;BME280;61944;52.538;6.108;2023-06-04T10:32:30;102223.81;;;21.35;50.12
73651;BME280;61944;52.538;6.108;2023-06-04T10:34:55;102221.28;;;21.47;47.47
73651;BME280;61944;52.538;6.108;2023-06-04T10:37:23;102227.84;;;21.41;47.63
73651;BME280;61944;52.538;6.108;2023-06-04T10:39:57;102229.91;;;21.37;44.66
73651;BME280;61944;52.538;6.108;2023-06-04T10:42:24;102222.94;;;21.41;49.22
73651;BME280;61944;52.538;6.108;2023-06-04T10:44:51;102223.97;;;21.65;50.00
73651;BME280;61944;52.538;6.108;2023-06-04T10:47:25;102225.56;;;21.70;48.37
73651;BME280;61944;52.538;6.108;2023-06-04T10:49:51;102217.72;;;21.78;47.55
73651;BME280;61944;52.538;6.108;2023-06-04T10:52:18;102210.25;;;21.91;46.55
73651;BME280;61944;52.538;6.108;2023-06-04T10:54:45;102205.44;;;22.19;45.09
73651;BME280;61944;52.538;6.108;2023-06-04T10:57:12;102207.25;;;22.05;48.50
73651;BME280;61944;52.538;6.108;2023-06-04T10:59:37;102204.38;;;22.40;43.45
73651;BME280;61944;52.538;6.108;2023-06-04T11:02:05;102206.56;;;22.86;41.23
73651;BME280;61944;52.538;6.108;2023-06-04T11:04:31;102209.81;;;22.30;45.23
73651;BME280;61944;52.538;6.108;2023-06-04T11:07:04;102209.59;;;22.45;45.52
73651;BME280;61944;52.538;6.108;2023-06-04T11:09:34;102209.19;;;22.46;44.07
73651;BME280;61944;52.538;6.108;2023-06-04T11:12:00;102209.78;;;22.61;42.96
73651;BME280;61944;52.538;6.108;2023-06-04T11:14:26;102208.69;;;22.79;45.25
73651;BME280;61944;52.538;6.108;2023-06-04T11:16:51;102203.88;;;22.76;43.66
73651;BME280;61944;52.538;6.108;2023-06-04T11:19:17;102213.84;;;22.87;45.41
73651;BME280;61944;52.538;6.108;2023-06-04T11:21:43;102208.16;;;22.87;42.77
73651;BME280;61944;52.538;6.108;2023-06-04T11:24:08;102200.03;;;23.13;46.00
73651;BME280;61944;52.538;6.108;2023-06-04T11:26:35;102191.75;;;22.68;46.57
73651;BME280;61944;52.538;6.108;2023-06-04T11:29:01;102197.88;;;22.39;45.58
73651;BME280;61944;52.538;6.108;2023-06-04T11:31:26;102197.03;;;22.39;44.75
73651;BME280;61944;52.538;6.108;2023-06-04T11:33:52;102193.88;;;22.87;42.54
73651;BME280;61944;52.538;6.108;2023-06-04T11:41:29;102199.88;;;22.97;43.76
73651;BME280;61944;52.538;6.108;2023-06-04T11:44:04;102193.28;;;23.00;43.32
73651;BME280;61944;52.538;6.108;2023-06-04T11:46:32;102194.63;;;23.19;44.95
73651;BME280;61944;52.538;6.108;2023-06-04T11:48:57;102190.41;;;23.00;43.02
73651;BME280;61944;52.538;6.108;2023-06-04T11:51:23;102180.69;;;22.97;46.08
73651;BME280;61944;52.538;6.108;2023-06-04T11:53:49;102187.19;;;22.98;41.57
73651;BME280;61944;52.538;6.108;2023-06-04T11:56:15;102169.91;;;23.08;45.46
73651;BME280;61944;52.538;6.108;2023-06-04T11:58:41;102179.84;;;23.24;42.57
73651;BME280;61944;52.538;6.108;2023-06-04T12:01:07;102185.69;;;23.17;42.91
73651;BME280;61944;52.538;6.108;2023-06-04T12:03:35;102173.53;;;22.85;42.95
73651;BME280;61944;52.538;6.108;2023-06-04T12:06:28;102175.31;;;23.03;43.64
73651;BME280;61944;52.538;6.108;2023-06-04T12:08:54;102182.22;;;23.05;44.02
73651;BME280;61944;52.538;6.108;2023-06-04T12:11:29;102180.53;;;23.08;42.94
73651;BME280;61944;52.538;6.108;2023-06-04T12:13:57;102171.94;;;23.55;41.22
73651;BME280;61944;52.538;6.108;2023-06-04T12:16:23;102167.69;;;22.69;39.95
73651;BME280;61944;52.538;6.108;2023-06-04T12:18:48;102173.69;;;23.25;43.15
73651;BME280;61944;52.538;6.108;2023-06-04T12:21:24;102165.72;;;23.60;43.42
73651;BME280;61944;52.538;6.108;2023-06-04T12:24:12;102170.94;;;24.05;41.20
73651;BME280;61944;52.538;6.108;2023-06-04T12:26:39;102172.75;;;24.15;38.94
73651;BME280;61944;52.538;6.108;2023-06-04T12:29:16;102168.03;;;23.89;39.67
73651;BME280;61944;52.538;6.108;2023-06-04T12:31:43;102168.97;;;23.82;39.75
73651;BME280;61944;52.538;6.108;2023-06-04T12:34:11;102167.03;;;24.35;39.11
73651;BME280;61944;52.538;6.108;2023-06-04T12:36:37;102157.31;;;24.49;37.94
73651;BME280;61944;52.538;6.108;2023-06-04T12:39:04;102170.19;;;24.21;42.19
73651;BME280;61944;52.538;6.108;2023-06-04T12:41:31;102167.50;;;24.14;41.00
73651;BME280;61944;52.538;6.108;2023-06-04T12:43:57;102169.09;;;24.15;39.79
73651;BME280;61944;52.538;6.108;2023-06-04T12:46:23;102166.88;;;23.43;40.29
73651;BME280;61944;52.538;6.108;2023-06-04T12:48:53;102165.19;;;23.89;40.26
73651;BME280;61944;52.538;6.108;2023-06-04T12:51:19;102163.97;;;23.66;41.24
73651;BME280;61944;52.538;6.108;2023-06-04T12:53:46;102161.25;;;22.88;42.87
73651;BME280;61944;52.538;6.108;2023-06-04T12:56:12;102162.09;;;23.56;42.14
73651;BME280;61944;52.538;6.108;2023-06-04T12:58:40;102178.31;;;24.43;39.14